NO-0027 weather

Torsnes Airfield
Borge, Østfold, Norway

Public forecast

Using degrees Celsius for public forecast. Weather courtesy of forecast.io.

METAR (pilot weather report)

Closest report is Moss Airport, Rygge, 13.9 nm (25.8 km) NW. Retrieved 2019/05/25 04:20 UTC (0 seconds ago):

ENRY 250420Z AUTO 07003KT 9999NDV NCD 08/07 Q1007

TAF (pilot weather forecast)

Closest forecast is Moss Airport, Rygge, 13.9 nm (25.8 km) NW. Retrieved 2019/05/25 00:00 UTC (4 hours ago):

TAF TAF ENRY 242300Z 2500/2524 36005KT CAVOK BECMG 2511/2513 20010KT BECMG 2518/2520 VRB05KT PROB30 2521/2524 SHRA FEW020CB BKN030